RJOI/IWA METAR and TAF weather

Enter ICAO airport designator
Station Type Date Time Source
RJOI METAR 2018/12/17 02:55 UTC NOAA

RJOI 170255Z 27011KT 9999 FEW030 FEW050 12/03 A2994 RMK SLP138 T01220028 58007


Station Type Date Time Source
RJOI Decoded METAR 2018/12/17 02:55 UTC NOAA

MCAS IWAKUNI,JAPAN, JA, Japan (RJOI) 34-09N 132-14E 5M
Dec 16, 2018 - 09:55 PM EST / 2018.12.17 0255 UTC
Wind: from the W (270 degrees) at 13 MPH (11 KT):0
Visibility: greater than 7 mile(s):0
Sky conditions: mostly clear
Temperature: 54.0 F (12.2 C)
Dew Point: 37.0 F (2.8 C)
Relative Humidity: 52%
Pressure (altimeter): 29.94 in. Hg (1013 hPa)
Pressure tendency: 0.02 inches (0.7 hPa) lower than three hours ago
ob: RJOI 170255Z 27011KT 9999 FEW030 FEW050 12/03 A2994 RMK SLP138 T01220028 58007
cycle: 3

Station Type Date Time Source
RJOI TAF 2018/12/16 21:37 UTC NOAA

TAF COR RJOI 1521/1621 31008KT 9999 SCT030 SCT120 QNH3018INS
BECMG 1523/1601 VRB06KT 9999 VCSH SCT020 SCT050 BKN080 QNH3014INS
BECMG 1602/1604 07008KT 8000 -SHRA BR BKN020 BKN040 640509 641404 QNH3002INS
FM160600 14008KT 6000 -SHRA BR FEW006 BKN010 OVC020 640509 641404 QNH2992INS
BECMG 1615/1617 29010KT 9999 NSW BKN030 BKN080 600000 QNH2992INS T03/1521Z T11/1604Z COR 0028


Example: see airport list